Knossos Palace — SYQO — position and weather

sailwx.info

Track history (hours):
 
Tides and Currents Weather Stations Pressure Air Temp Water Temp Dewpoint Dewpoint Depression Visibility Wind Speed Wind Dir Waves Ship Positions

Knossos Palace

Last reported at 2014-Sep-19 01:33 UTC. Time now 2014-Sep-19 01:52 UTC.
Position N 35°48' E 024°50'.

Length 214 m; beam 26.4 m; draft 7.3 m.

Type: Passenger vessel. MMSI: 237641000.

Date/timePositionNaut miles runAvg speedWind from/ knotsBaromVisibWave heightAir tempDewpointWater temp
2014-Sep-19 01:33N 35°48' E 024°50'1919.5
2014-Sep-19 00:33N 36°05' E 024°38'2019.5
2014-Sep-18 23:33N 36°22' E 024°26'1919.3
2014-Sep-18 22:33N 36°39' E 024°14'1919.1
2014-Sep-18 21:33N 36°56' E 024°05'4119.4
2014-Sep-18 19:27N 37°34' E 023°45'1719.1
2014-Sep-18 18:34N 37°50' E 023°37'7 6.7
2014-Sep-18 17:33N 37°57' E 023°38'0 0.0
2014-Sep-18 16:33N 37°57' E 023°38'0 0.0
2014-Sep-18 15:34N 37°57' E 023°38'0 0.0
2014-Sep-18 14:34N 37°57' E 023°38'0 0.0
2014-Sep-18 13:34N 37°57' E 023°38'0 0.0
2014-Sep-18 12:34N 37°57' E 023°38'0 0.0
2014-Sep-18 11:33N 37°57' E 023°38'0 0.0
2014-Sep-18 10:34N 37°57' E 023°38'0 0.0
2014-Sep-18 09:34N 37°57' E 023°38'0 0.0
2014-Sep-18 08:34N 37°57' E 023°38'0 0.0
2014-Sep-18 07:34N 37°57' E 023°38'0 0.0
2014-Sep-18 06:34N 37°57' E 023°38'0 0.0
2014-Sep-18 05:34N 37°57' E 023°38'0 0.0
2014-Sep-18 04:34N 37°57' E 023°38'0 0.1
2014-Sep-18 03:34N 37°56' E 023°38'1515.2
2014-Sep-18 02:33N 37°42' E 023°45'4219.9
2014-Sep-18 00:27N 37°03' E 024°03'1819.6
2014-Sep-17 23:33N 36°46' E 024°11'2019.9
2014-Sep-17 22:33N 36°29' E 024°22'2020.0
2014-Sep-17 21:34N 36°11' E 024°34'2019.7
2014-Sep-17 20:34N 35°54' E 024°46'2019.8
2014-Sep-17 19:34N 35°37' E 024°58'0 0.0
2014-Sep-17 02:27N 35°37' E 024°58'1719.4
2014-Sep-17 01:33N 35°53' E 024°47'1919.2
2014-Sep-17 00:33N 36°09' E 024°35'1918.8
2014-Sep-16 23:33N 36°25' E 024°24'1918.6
2014-Sep-16 22:33N 36°42' E 024°13'1918.8
2014-Sep-16 21:34N 36°59' E 024°03'3918.9
2014-Sep-16 19:31N 37°34' E 023°44'1818.6
2014-Sep-16 18:34N 37°51' E 023°36'6 5.9
2014-Sep-16 17:33N 37°57' E 023°38'0 0.0
2014-Sep-16 16:32N 37°57' E 023°38'0 0.0
2014-Sep-16 15:32N 37°57' E 023°38'0 0.0
2014-Sep-16 14:32N 37°57' E 023°38'0 0.0
2014-Sep-16 13:32N 37°57' E 023°38'0 0.0
2014-Sep-16 12:32N 37°57' E 023°38'0 0.0
2014-Sep-16 11:32N 37°57' E 023°38'0 0.0
2014-Sep-16 10:32N 37°57' E 023°38'0 0.0
2014-Sep-16 09:32N 37°57' E 023°38'0 0.0
2014-Sep-16 08:32N 37°57' E 023°38'0 0.0
2014-Sep-16 07:32N 37°57' E 023°38'0 0.0
2014-Sep-16 06:32N 37°57' E 023°38'0 0.0
2014-Sep-16 05:32N 37°57' E 023°38'0 0.0
2014-Sep-16 04:32N 37°57' E 023°38'0 0.1
2014-Sep-16 03:33N 37°56' E 023°38'1515.2
2014-Sep-16 02:33N 37°42' E 023°45'4020.0
2014-Sep-16 00:33N 37°05' E 024°03'2019.9
2014-Sep-15 23:33N 36°46' E 024°11'2020.3
2014-Sep-15 22:33N 36°28' E 024°22'2020.0
2014-Sep-15 21:33N 36°11' E 024°35'2019.7
2014-Sep-15 20:33N 35°54' E 024°47'2019.6
2014-Sep-15 19:33N 35°37' E 024°59'2 0.1
2014-Sep-15 02:13N 35°39' E 024°57'1319.5
2014-Sep-15 01:33N 35°50' E 024°49'2019.7
2014-Sep-15 00:34N 36°07' E 024°37'1919.3
2014-Sep-14 23:34N 36°24' E 024°25'2019.0
2014-Sep-14 22:29N 36°41' E 024°13'1718.7
2014-Sep-14 21:33N 36°57' E 024°04'2318.8
2014-Sep-14 20:21N 37°18' E 023°54'2218.7
2014-Sep-14 19:12N 37°38' E 023°43'1218.8
2014-Sep-14 18:33N 37°49' E 023°37'7 7.4
2014-Sep-14 17:34N 37°57' E 023°38'0 0.0
2014-Sep-14 16:32N 37°57' E 023°38'0 0.0
2014-Sep-14 15:32N 37°57' E 023°38'0 0.0
2014-Sep-14 14:32N 37°57' E 023°38'0 0.0
2014-Sep-14 13:32N 37°57' E 023°38'0 0.0
2014-Sep-14 12:32N 37°57' E 023°38'0 0.0
2014-Sep-14 11:32N 37°57' E 023°38'0 0.0
2014-Sep-14 10:32N 37°57' E 023°38'0 0.0
2014-Sep-14 09:32N 37°57' E 023°38'0 0.0
2014-Sep-14 08:32N 37°57' E 023°38'0 0.0
2014-Sep-14 07:32N 37°57' E 023°38'0 0.0
2014-Sep-14 06:32N 37°57' E 023°38'0 0.0
2014-Sep-14 05:32N 37°57' E 023°38'0 0.0
2014-Sep-14 04:29N 37°57' E 023°38'0 0.4
2014-Sep-14 03:33N 37°56' E 023°38'4118.7
2014-Sep-14 01:20N 37°18' E 023°57'7519.7
2014-Sep-13 21:33N 36°10' E 024°35'2019.4
2014-Sep-13 20:33N 35°53' E 024°47'2019.4
2014-Sep-13 19:32N 35°36' E 024°59'1717.3
2014-Sep-13 18:33N 35°21' E 025°09'0 0.1
2014-Sep-13 17:29N 35°21' E 025°09'0 0.0
2014-Sep-13 16:29N 35°21' E 025°09'0 0.0
2014-Sep-13 15:29N 35°21' E 025°09'0 0.0
2014-Sep-13 13:23N 35°21' E 025°09'0 0.0
2014-Sep-13 12:05N 35°21' E 025°09'0 0.0
2014-Sep-13 08:05N 35°21' E 025°09'0 0.0
2014-Sep-13 07:26N 35°21' E 025°09'0 0.0
2014-Sep-13 04:28N 35°21' E 025°09'1 0.6
2014-Sep-13 03:32N 35°21' E 025°09'1818.0
2014-Sep-13 02:31N 35°37' E 024°59'1919.2
2014-Sep-13 01:33N 35°53' E 024°47'1919.0
2014-Sep-13 00:33N 36°09' E 024°35'1918.7
2014-Sep-12 23:33N 36°25' E 024°23'1818.4
2014-Sep-12 22:33N 36°42' E 024°12'1918.8
2014-Sep-12 21:33N 36°59' E 024°03'2919.0
2014-Sep-12 20:03N 37°26' E 023°50'1218.6
2014-Sep-12 19:24N 37°37' E 023°45'1416.6
2014-Sep-12 18:33N 37°50' E 023°37'7 7.0
2014-Sep-12 17:33N 37°57' E 023°38'0 0.0
2014-Sep-12 16:32N 37°57' E 023°38'0 0.0
2014-Sep-12 15:32N 37°57' E 023°38'0 0.0
2014-Sep-12 14:32N 37°57' E 023°38'0 0.0
2014-Sep-12 13:32N 37°57' E 023°38'0 0.0
2014-Sep-12 12:29N 37°57' E 023°38'0 0.0
2014-Sep-12 11:32N 37°57' E 023°38'0 0.0
2014-Sep-12 10:32N 37°57' E 023°38'0 0.0
2014-Sep-12 09:32N 37°57' E 023°38'0 0.0
2014-Sep-12 08:32N 37°57' E 023°38'0 0.0
2014-Sep-12 07:32N 37°57' E 023°38'0 0.0
2014-Sep-12 06:32N 37°57' E 023°38'0 0.0
2014-Sep-12 05:32N 37°57' E 023°38'0 0.0
2014-Sep-12 04:32N 37°57' E 023°38'0 0.1
2014-Sep-12 03:34N 37°56' E 023°38'1514.4
2014-Sep-12 02:33N 37°43' E 023°45'2019.1
2014-Sep-12 01:30N 37°24' E 023°54'1919.9
2014-Sep-12 00:33N 37°06' E 024°02'2220.3
2014-Sep-11 23:30N 36°46' E 024°11'1920.4
2014-Sep-11 22:33N 36°29' E 024°22'2020.2
2014-Sep-11 21:33N 36°12' E 024°34'2019.9
2014-Sep-11 20:33N 35°54' E 024°46'2320.1
2014-Sep-11 19:26N 35°35' E 025°00'1612.1
2014-Sep-11 18:08N 35°21' E 025°09'0 0.0
2014-Sep-11 17:33N 35°21' E 025°09'0 0.0
2014-Sep-11 16:33N 35°21' E 025°09'0 0.0
2014-Sep-11 15:22N 35°21' E 025°09'0 0.0
2014-Sep-11 14:33N 35°21' E 025°09'0 0.0
2014-Sep-11 13:33N 35°21' E 025°09'0 0.0
2014-Sep-11 12:32N 35°21' E 025°09'0 0.0
2014-Sep-11 11:29N 35°21' E 025°09'0 0.0
2014-Sep-11 09:32N 35°21' E 025°09'20 2.8
2014-Sep-11 02:20N 35°39' E 024°57'1519.3
2014-Sep-11 01:33N 35°52' E 024°48'2019.5
2014-Sep-11 00:33N 36°09' E 024°36'1919.2
2014-Sep-10 23:33N 36°25' E 024°24'1918.8
2014-Sep-10 22:33N 36°42' E 024°12'1918.7
2014-Sep-10 21:33N 36°59' E 024°03'4118.7
2014-Sep-10 19:21N 37°37' E 023°44'1518.6
2014-Sep-10 18:33N 37°51' E 023°37'6 5.6
2014-Sep-10 17:33N 37°57' E 023°38'0 0.0
2014-Sep-10 16:33N 37°57' E 023°38'0 0.0
2014-Sep-10 15:33N 37°57' E 023°38'0 0.0
2014-Sep-10 14:33N 37°57' E 023°38'0 0.0
2014-Sep-10 13:33N 37°57' E 023°38'0 0.0
2014-Sep-10 12:33N 37°57' E 023°38'0 0.0
2014-Sep-10 11:33N 37°57' E 023°38'0 0.0
2014-Sep-10 10:33N 37°57' E 023°38'0 0.0
2014-Sep-10 09:33N 37°57' E 023°38'0 0.0
2014-Sep-10 08:33N 37°57' E 023°38'0 0.0
2014-Sep-10 07:33N 37°57' E 023°38'0 0.0
2014-Sep-10 06:30N 37°57' E 023°38'0 0.0
2014-Sep-10 05:33N 37°57' E 023°38'0 0.0
2014-Sep-10 04:33N 37°57' E 023°38'0 0.4
2014-Sep-10 03:33N 37°56' E 023°38'1515.0
2014-Sep-10 02:33N 37°42' E 023°45'4019.8
2014-Sep-10 00:33N 37°05' E 024°02'2020.2
2014-Sep-09 23:32N 36°46' E 024°11'2020.4
2014-Sep-09 22:33N 36°28' E 024°22'2020.4
2014-Sep-09 21:33N 36°11' E 024°35'2019.7
2014-Sep-09 20:33N 35°53' E 024°47'2019.7
2014-Sep-09 19:33N 35°36' E 024°59'1 0.1
2014-Sep-09 02:22N 35°37' E 024°58'1619.6
2014-Sep-09 01:34N 35°51' E 024°48'  
Track history (hours):
 
Tides and Currents Weather Stations Pressure Air Temp Water Temp Dewpoint Dewpoint Depression Visibility Wind Speed Wind Dir Waves Ship Positions

Knossos Palace

Last reported at 2014-Sep-19 01:33 UTC. Time now 2014-Sep-19 01:52 UTC.
Position N 35°48' E 024°50'.

Length 214 m; beam 26.4 m; draft 7.3 m.

Type: Passenger vessel. MMSI: 237641000.

Date/timePositionNaut miles runAvg speedWind from/ knotsBaromVisibWave heightAir tempDewpointWater temp
2014-Sep-19 01:33N 35°48' E 024°50'1919.5
2014-Sep-19 00:33N 36°05' E 024°38'2019.5
2014-Sep-18 23:33N 36°22' E 024°26'1919.3
2014-Sep-18 22:33N 36°39' E 024°14'1919.1
2014-Sep-18 21:33N 36°56' E 024°05'4119.4
2014-Sep-18 19:27N 37°34' E 023°45'1719.1
2014-Sep-18 18:34N 37°50' E 023°37'7 6.7
2014-Sep-18 17:33N 37°57' E 023°38'0 0.0
2014-Sep-18 16:33N 37°57' E 023°38'0 0.0
2014-Sep-18 15:34N 37°57' E 023°38'0 0.0
2014-Sep-18 14:34N 37°57' E 023°38'0 0.0
2014-Sep-18 13:34N 37°57' E 023°38'0 0.0
2014-Sep-18 12:34N 37°57' E 023°38'0 0.0
2014-Sep-18 11:33N 37°57' E 023°38'0 0.0
2014-Sep-18 10:34N 37°57' E 023°38'0 0.0
2014-Sep-18 09:34N 37°57' E 023°38'0 0.0
2014-Sep-18 08:34N 37°57' E 023°38'0 0.0
2014-Sep-18 07:34N 37°57' E 023°38'0 0.0
2014-Sep-18 06:34N 37°57' E 023°38'0 0.0
2014-Sep-18 05:34N 37°57' E 023°38'0 0.0
2014-Sep-18 04:34N 37°57' E 023°38'0 0.1
2014-Sep-18 03:34N 37°56' E 023°38'1515.2
2014-Sep-18 02:33N 37°42' E 023°45'4219.9
2014-Sep-18 00:27N 37°03' E 024°03'1819.6
2014-Sep-17 23:33N 36°46' E 024°11'2019.9
2014-Sep-17 22:33N 36°29' E 024°22'2020.0
2014-Sep-17 21:34N 36°11' E 024°34'2019.7
2014-Sep-17 20:34N 35°54' E 024°46'2019.8
2014-Sep-17 19:34N 35°37' E 024°58'0 0.0
2014-Sep-17 02:27N 35°37' E 024°58'1719.4
2014-Sep-17 01:33N 35°53' E 024°47'1919.2
2014-Sep-17 00:33N 36°09' E 024°35'1918.8
2014-Sep-16 23:33N 36°25' E 024°24'1918.6
2014-Sep-16 22:33N 36°42' E 024°13'1918.8
2014-Sep-16 21:34N 36°59' E 024°03'3918.9
2014-Sep-16 19:31N 37°34' E 023°44'1818.6
2014-Sep-16 18:34N 37°51' E 023°36'6 5.9
2014-Sep-16 17:33N 37°57' E 023°38'0 0.0
2014-Sep-16 16:32N 37°57' E 023°38'0 0.0
2014-Sep-16 15:32N 37°57' E 023°38'0 0.0
2014-Sep-16 14:32N 37°57' E 023°38'0 0.0
2014-Sep-16 13:32N 37°57' E 023°38'0 0.0
2014-Sep-16 12:32N 37°57' E 023°38'0 0.0
2014-Sep-16 11:32N 37°57' E 023°38'0 0.0
2014-Sep-16 10:32N 37°57' E 023°38'0 0.0
2014-Sep-16 09:32N 37°57' E 023°38'0 0.0
2014-Sep-16 08:32N 37°57' E 023°38'0 0.0
2014-Sep-16 07:32N 37°57' E 023°38'0 0.0
2014-Sep-16 06:32N 37°57' E 023°38'0 0.0
2014-Sep-16 05:32N 37°57' E 023°38'0 0.0
2014-Sep-16 04:32N 37°57' E 023°38'0 0.1
2014-Sep-16 03:33N 37°56' E 023°38'1515.2
2014-Sep-16 02:33N 37°42' E 023°45'4020.0
2014-Sep-16 00:33N 37°05' E 024°03'2019.9
2014-Sep-15 23:33N 36°46' E 024°11'2020.3
2014-Sep-15 22:33N 36°28' E 024°22'2020.0
2014-Sep-15 21:33N 36°11' E 024°35'2019.7
2014-Sep-15 20:33N 35°54' E 024°47'2019.6
2014-Sep-15 19:33N 35°37' E 024°59'2 0.1
2014-Sep-15 02:13N 35°39' E 024°57'1319.5
2014-Sep-15 01:33N 35°50' E 024°49'2019.7
2014-Sep-15 00:34N 36°07' E 024°37'1919.3
2014-Sep-14 23:34N 36°24' E 024°25'2019.0
2014-Sep-14 22:29N 36°41' E 024°13'1718.7
2014-Sep-14 21:33N 36°57' E 024°04'2318.8
2014-Sep-14 20:21N 37°18' E 023°54'2218.7
2014-Sep-14 19:12N 37°38' E 023°43'1218.8
2014-Sep-14 18:33N 37°49' E 023°37'7 7.4
2014-Sep-14 17:34N 37°57' E 023°38'0 0.0
2014-Sep-14 16:32N 37°57' E 023°38'0 0.0
2014-Sep-14 15:32N 37°57' E 023°38'0 0.0
2014-Sep-14 14:32N 37°57' E 023°38'0 0.0
2014-Sep-14 13:32N 37°57' E 023°38'0 0.0
2014-Sep-14 12:32N 37°57' E 023°38'0 0.0
2014-Sep-14 11:32N 37°57' E 023°38'0 0.0
2014-Sep-14 10:32N 37°57' E 023°38'0 0.0
2014-Sep-14 09:32N 37°57' E 023°38'0 0.0
2014-Sep-14 08:32N 37°57' E 023°38'0 0.0
2014-Sep-14 07:32N 37°57' E 023°38'0 0.0
2014-Sep-14 06:32N 37°57' E 023°38'0 0.0
2014-Sep-14 05:32N 37°57' E 023°38'0 0.0
2014-Sep-14 04:29N 37°57' E 023°38'0 0.4
2014-Sep-14 03:33N 37°56' E 023°38'4118.7
2014-Sep-14 01:20N 37°18' E 023°57'7519.7
2014-Sep-13 21:33N 36°10' E 024°35'2019.4
2014-Sep-13 20:33N 35°53' E 024°47'2019.4
2014-Sep-13 19:32N 35°36' E 024°59'1717.3
2014-Sep-13 18:33N 35°21' E 025°09'0 0.1
2014-Sep-13 17:29N 35°21' E 025°09'0 0.0
2014-Sep-13 16:29N 35°21' E 025°09'0 0.0
2014-Sep-13 15:29N 35°21' E 025°09'0 0.0
2014-Sep-13 13:23N 35°21' E 025°09'0 0.0
2014-Sep-13 12:05N 35°21' E 025°09'0 0.0
2014-Sep-13 08:05N 35°21' E 025°09'0 0.0
2014-Sep-13 07:26N 35°21' E 025°09'0 0.0
2014-Sep-13 04:28N 35°21' E 025°09'1 0.6
2014-Sep-13 03:32N 35°21' E 025°09'1818.0
2014-Sep-13 02:31N 35°37' E 024°59'1919.2
2014-Sep-13 01:33N 35°53' E 024°47'1919.0
2014-Sep-13 00:33N 36°09' E 024°35'1918.7
2014-Sep-12 23:33N 36°25' E 024°23'1818.4
2014-Sep-12 22:33N 36°42' E 024°12'1918.8
2014-Sep-12 21:33N 36°59' E 024°03'2919.0
2014-Sep-12 20:03N 37°26' E 023°50'1218.6
2014-Sep-12 19:24N 37°37' E 023°45'1416.6
2014-Sep-12 18:33N 37°50' E 023°37'7 7.0
2014-Sep-12 17:33N 37°57' E 023°38'0 0.0
2014-Sep-12 16:32N 37°57' E 023°38'0 0.0
2014-Sep-12 15:32N 37°57' E 023°38'0 0.0
2014-Sep-12 14:32N 37°57' E 023°38'0 0.0
2014-Sep-12 13:32N 37°57' E 023°38'0 0.0
2014-Sep-12 12:29N 37°57' E 023°38'0 0.0
2014-Sep-12 11:32N 37°57' E 023°38'0 0.0
2014-Sep-12 10:32N 37°57' E 023°38'0 0.0
2014-Sep-12 09:32N 37°57' E 023°38'0 0.0
2014-Sep-12 08:32N 37°57' E 023°38'0 0.0
2014-Sep-12 07:32N 37°57' E 023°38'0 0.0
2014-Sep-12 06:32N 37°57' E 023°38'0 0.0
2014-Sep-12 05:32N 37°57' E 023°38'0 0.0
2014-Sep-12 04:32N 37°57' E 023°38'0 0.1
2014-Sep-12 03:34N 37°56' E 023°38'1514.4
2014-Sep-12 02:33N 37°43' E 023°45'2019.1
2014-Sep-12 01:30N 37°24' E 023°54'1919.9
2014-Sep-12 00:33N 37°06' E 024°02'2220.3
2014-Sep-11 23:30N 36°46' E 024°11'1920.4
2014-Sep-11 22:33N 36°29' E 024°22'2020.2
2014-Sep-11 21:33N 36°12' E 024°34'2019.9
2014-Sep-11 20:33N 35°54' E 024°46'2320.1
2014-Sep-11 19:26N 35°35' E 025°00'1612.1
2014-Sep-11 18:08N 35°21' E 025°09'0 0.0
2014-Sep-11 17:33N 35°21' E 025°09'0 0.0
2014-Sep-11 16:33N 35°21' E 025°09'0 0.0
2014-Sep-11 15:22N 35°21' E 025°09'0 0.0
2014-Sep-11 14:33N 35°21' E 025°09'0 0.0
2014-Sep-11 13:33N 35°21' E 025°09'0 0.0
2014-Sep-11 12:32N 35°21' E 025°09'0 0.0
2014-Sep-11 11:29N 35°21' E 025°09'0 0.0
2014-Sep-11 09:32N 35°21' E 025°09'20 2.8
2014-Sep-11 02:20N 35°39' E 024°57'1519.3
2014-Sep-11 01:33N 35°52' E 024°48'2019.5
2014-Sep-11 00:33N 36°09' E 024°36'1919.2
2014-Sep-10 23:33N 36°25' E 024°24'1918.8
2014-Sep-10 22:33N 36°42' E 024°12'1918.7
2014-Sep-10 21:33N 36°59' E 024°03'4118.7
2014-Sep-10 19:21N 37°37' E 023°44'1518.6
2014-Sep-10 18:33N 37°51' E 023°37'6 5.6
2014-Sep-10 17:33N 37°57' E 023°38'0 0.0
2014-Sep-10 16:33N 37°57' E 023°38'0 0.0
2014-Sep-10 15:33N 37°57' E 023°38'0 0.0
2014-Sep-10 14:33N 37°57' E 023°38'0 0.0
2014-Sep-10 13:33N 37°57' E 023°38'0 0.0
2014-Sep-10 12:33N 37°57' E 023°38'0 0.0
2014-Sep-10 11:33N 37°57' E 023°38'0 0.0
2014-Sep-10 10:33N 37°57' E 023°38'0 0.0
2014-Sep-10 09:33N 37°57' E 023°38'0 0.0
2014-Sep-10 08:33N 37°57' E 023°38'0 0.0
2014-Sep-10 07:33N 37°57' E 023°38'0 0.0
2014-Sep-10 06:30N 37°57' E 023°38'0 0.0
2014-Sep-10 05:33N 37°57' E 023°38'0 0.0
2014-Sep-10 04:33N 37°57' E 023°38'0 0.4
2014-Sep-10 03:33N 37°56' E 023°38'1515.0
2014-Sep-10 02:33N 37°42' E 023°45'4019.8
2014-Sep-10 00:33N 37°05' E 024°02'2020.2
2014-Sep-09 23:32N 36°46' E 024°11'2020.4
2014-Sep-09 22:33N 36°28' E 024°22'2020.4
2014-Sep-09 21:33N 36°11' E 024°35'2019.7
2014-Sep-09 20:33N 35°53' E 024°47'2019.7
2014-Sep-09 19:33N 35°36' E 024°59'1 0.1
2014-Sep-09 02:22N 35°37' E 024°58'1619.6
2014-Sep-09 01:34N 35°51' E 024°48'  

Dump ship's entire track history